Time;durP1;ratioP1;P1;durP2;ratioP2;P2;SDS_P1;SDS_P2;PMS_P1;PMS_P2;Temp;Humidity;BMP_temperature;BMP_pressure;BME280_temperature;BME280_humidity;BME280_pressure;Samples;Min_cycle;Max_cycle;Signal;HPM_P1;HPM_P2
2021/01/27 00:00:58;;;;;;;36.77;14.80;;;0.60;99.90;;;;;;5307944;27;20127;-75
2021/01/27 00:03:24;;;;;;;32.60;14.37;;;0.70;99.90;;;;;;5310249;27;20332;-75
2021/01/27 00:05:52;;;;;;;34.20;14.50;;;0.70;99.90;;;;;;5309037;27;20437;-75
2021/01/27 00:08:20;;;;;;;36.47;15.27;;;0.70;99.90;;;;;;5309218;27;20141;-74
2021/01/27 00:10:47;;;;;;;38.93;15.67;;;0.70;99.90;;;;;;5309312;27;20195;-74
2021/01/27 00:13:17;;;;;;;37.07;16.17;;;0.70;99.90;;;;;;5308597;27;20129;-74
2021/01/27 00:15:44;;;;;;;36.17;15.57;;;0.70;99.90;;;;;;5309162;27;20403;-73
2021/01/27 00:18:14;;;;;;;36.13;16.10;;;0.60;99.90;;;;;;5310805;27;20177;-74
2021/01/27 00:20:41;;;;;;;37.90;15.97;;;0.60;99.90;;;;;;5307710;27;20132;-74
2021/01/27 00:23:08;;;;;;;42.47;17.27;;;0.60;99.90;;;;;;5306694;27;20142;-73
2021/01/27 00:25:36;;;;;;;40.23;17.40;;;0.60;99.90;;;;;;5308928;27;20116;-72
2021/01/27 00:28:05;;;;;;;41.33;16.93;;;0.60;99.90;;;;;;5308465;27;20130;-72
2021/01/27 00:30:37;;;;;;;42.53;17.00;;;0.60;99.90;;;;;;5308493;27;20112;-72
2021/01/27 00:33:06;;;;;;;41.07;16.33;;;0.70;99.90;;;;;;5311942;27;20420;-72
2021/01/27 00:35:37;;;;;;;42.37;17.73;;;0.70;99.90;;;;;;5311902;27;20119;-72
2021/01/27 00:38:14;;;;;;;41.90;17.77;;;0.70;99.90;;;;;;5309973;27;20114;-72
2021/01/27 00:40:40;;;;;;;39.37;17.47;;;0.60;99.90;;;;;;5309985;27;20164;-73
2021/01/27 00:43:07;;;;;;;38.33;16.97;;;0.60;99.90;;;;;;5309898;27;20187;-72
2021/01/27 00:45:33;;;;;;;40.90;17.90;;;0.70;99.90;;;;;;5311372;27;20386;-72
2021/01/27 00:48:00;;;;;;;42.07;17.67;;;0.70;99.90;;;;;;5309309;27;20436;-72
2021/01/27 00:50:26;;;;;;;43.23;17.83;;;0.70;99.90;;;;;;5311614;27;20197;-72
2021/01/27 00:52:53;;;;;;;46.77;19.47;;;0.70;99.90;;;;;;5310028;27;20118;-72
2021/01/27 00:55:23;;;;;;;40.00;17.70;;;0.70;99.90;;;;;;5311826;27;20392;-73
2021/01/27 00:57:49;;;;;;;39.73;18.07;;;0.80;99.90;;;;;;5309814;27;20124;-73
2021/01/27 01:00:19;;;;;;;43.67;18.30;;;0.70;99.90;;;;;;5309927;27;20113;-73
2021/01/27 01:02:46;;;;;;;40.67;17.53;;;0.80;99.90;;;;;;5309911;27;20167;-72
2021/01/27 01:05:16;;;;;;;41.40;17.70;;;0.70;99.90;;;;;;5312105;27;20114;-72
2021/01/27 01:07:47;;;;;;;42.83;18.00;;;0.70;99.90;;;;;;5289994;27;20137;-72
2021/01/27 01:10:20;;;;;;;43.43;18.57;;;0.60;99.90;;;;;;5311796;27;20158;-72
2021/01/27 01:12:47;;;;;;;44.03;17.93;;;0.60;99.90;;;;;;5311878;27;20156;-72
2021/01/27 01:15:16;;;;;;;40.80;17.43;;;0.70;99.90;;;;;;5309471;27;20173;-74
2021/01/27 01:17:42;;;;;;;42.57;18.80;;;0.70;99.90;;;;;;5311698;27;20113;-73
2021/01/27 01:20:14;;;;;;;44.37;19.30;;;0.70;99.90;;;;;;5311913;27;20319;-72
2021/01/27 01:22:45;;;;;;;41.60;17.43;;;0.80;99.90;;;;;;5308943;27;20113;-73
2021/01/27 01:25:13;;;;;;;39.80;18.07;;;0.80;99.90;;;;;;5309303;27;20154;-72
2021/01/27 01:27:41;;;;;;;39.37;17.83;;;0.80;99.90;;;;;;5310060;27;20117;-73
2021/01/27 01:30:30;;;;;;;38.53;17.67;;;0.70;99.90;;;;;;5311648;27;20496;-72
2021/01/27 01:32:59;;;;;;;39.83;16.97;;;0.70;99.90;;;;;;5309202;27;20364;-73
2021/01/27 01:35:26;;;;;;;38.17;17.77;;;0.70;99.90;;;;;;5309442;27;20136;-74
2021/01/27 01:37:53;;;;;;;41.63;18.03;;;0.80;99.90;;;;;;5310104;27;20161;-72
2021/01/27 01:40:26;;;;;;;38.10;17.57;;;0.70;99.90;;;;;;5309525;27;20436;-73
2021/01/27 01:43:20;;;;;;;38.00;17.10;;;0.80;99.90;;;;;;5308584;27;20114;-73
2021/01/27 01:45:52;;;;;;;39.63;17.63;;;0.70;99.90;;;;;;5307172;27;20540;-73
2021/01/27 01:48:53;;;;;;;41.63;16.80;;;0.80;99.90;;;;;;5311677;27;20121;-73
2021/01/27 01:51:27;;;;;;;41.40;16.60;;;0.80;99.90;;;;;;5309457;27;20112;-73
2021/01/27 01:54:01;;;;;;;37.13;17.07;;;0.70;99.90;;;;;;5309394;27;20155;-73
2021/01/27 01:56:34;;;;;;;38.33;16.80;;;0.70;99.90;;;;;;5309839;27;20503;-72
2021/01/27 01:59:06;;;;;;;39.20;17.63;;;0.80;99.90;;;;;;5311481;27;20160;-73
2021/01/27 02:01:33;;;;;;;36.73;16.73;;;0.80;99.90;;;;;;5311222;27;20114;-72
2021/01/27 02:04:01;;;;;;;38.37;17.33;;;0.80;99.90;;;;;;5309308;27;20113;-73
2021/01/27 02:06:28;;;;;;;39.13;17.07;;;0.80;99.90;;;;;;5309475;27;20340;-73
2021/01/27 02:08:58;;;;;;;42.17;18.30;;;0.80;99.90;;;;;;5309183;27;20137;-73
2021/01/27 02:11:39;;;;;;;39.37;17.70;;;0.80;99.90;;;;;;5311501;27;20457;-73
2021/01/27 02:14:15;;;;;;;38.13;16.97;;;0.80;99.90;;;;;;5309114;27;20117;-73
2021/01/27 02:17:22;;;;;;;43.70;17.53;;;0.70;99.90;;;;;;5310778;27;20117;-74
2021/01/27 02:20:27;;;;;;;35.93;16.87;;;0.80;99.90;;;;;;5220125;27;20174;-73
2021/01/27 02:23:12;;;;;;;39.80;16.83;;;0.80;99.90;;;;;;5195957;27;20134;-73
2021/01/27 02:26:01;;;;;;;39.40;17.00;;;0.80;99.90;;;;;;5222173;27;20140;-74
2021/01/27 02:29:04;;;;;;;39.00;17.33;;;0.80;99.90;;;;;;5222405;27;20115;-74
2021/01/27 02:31:44;;;;;;;36.93;16.17;;;0.80;99.90;;;;;;5219886;27;20115;-74
2021/01/27 02:35:04;;;;;;;38.00;17.13;;;0.80;99.90;;;;;;5222629;27;20425;-74
2021/01/27 02:37:35;;;;;;;39.40;16.63;;;0.80;99.90;;;;;;5136070;27;20143;-74
2021/01/27 02:40:13;;;;;;;39.97;18.37;;;0.80;99.90;;;;;;5136098;28;20174;-73
2021/01/27 02:42:46;;;;;;;37.73;17.30;;;0.80;99.90;;;;;;5136577;28;20443;-73
2021/01/27 02:45:22;;;;;;;39.70;17.80;;;0.80;99.90;;;;;;5138549;28;20117;-74
2021/01/27 02:47:53;;;;;;;34.30;17.17;;;0.80;99.90;;;;;;5137652;28;20497;-73
2021/01/27 02:50:25;;;;;;;40.63;16.43;;;0.80;99.90;;;;;;5136117;28;20121;-73
2021/01/27 02:53:05;;;;;;;34.80;15.53;;;0.80;99.90;;;;;;5136091;28;20164;-73
2021/01/27 02:55:56;;;;;;;35.40;16.27;;;0.80;99.90;;;;;;5186650;27;20183;-73
2021/01/27 02:58:45;;;;;;;37.67;16.23;;;0.90;99.90;;;;;;5219732;27;20119;-73
2021/01/27 03:01:25;;;;;;;37.63;16.90;;;0.80;99.90;;;;;;5220985;27;20141;-73
2021/01/27 03:04:01;;;;;;;32.63;15.60;;;0.80;99.90;;;;;;5219726;27;20134;-73
2021/01/27 03:06:28;;;;;;;36.90;16.13;;;0.90;99.90;;;;;;5219997;27;20145;-73
2021/01/27 03:09:03;;;;;;;34.90;15.13;;;0.80;99.90;;;;;;5292197;27;20162;-73
2021/01/27 03:11:33;;;;;;;38.00;16.67;;;0.90;99.90;;;;;;5309337;27;20127;-74
2021/01/27 03:14:02;;;;;;;37.37;15.60;;;0.90;99.90;;;;;;5308973;27;20354;-74
2021/01/27 03:16:38;;;;;;;31.90;15.47;;;1.00;99.90;;;;;;5310970;27;20121;-74
2021/01/27 03:19:17;;;;;;;34.80;15.03;;;1.00;99.90;;;;;;5308857;27;20115;-74
2021/01/27 03:21:57;;;;;;;31.13;14.33;;;1.00;99.90;;;;;;5311100;27;20110;-74
2021/01/27 03:24:24;;;;;;;31.67;14.70;;;1.00;99.90;;;;;;5308231;27;20454;-74
2021/01/27 03:27:02;;;;;;;33.53;15.07;;;0.90;99.90;;;;;;5308861;27;20156;-74
2021/01/27 03:29:47;;;;;;;32.83;14.73;;;0.90;99.90;;;;;;5291560;27;20444;-74
2021/01/27 03:32:48;;;;;;;29.47;14.47;;;0.90;99.90;;;;;;5310942;27;20158;-74
2021/01/27 03:35:40;;;;;;;30.13;14.43;;;1.00;99.90;;;;;;5220279;27;20484;-74
2021/01/27 03:38:29;;;;;;;32.23;14.00;;;1.00;99.90;;;;;;5221420;27;20197;-74
2021/01/27 03:41:01;;;;;;;28.90;13.80;;;1.00;99.90;;;;;;5220071;27;20137;-74
2021/01/27 03:43:31;;;;;;;32.73;14.53;;;1.10;99.90;;;;;;5222225;27;20175;-74
2021/01/27 03:46:07;;;;;;;31.83;13.80;;;1.00;99.90;;;;;;5219682;27;20173;-74
2021/01/27 03:48:42;;;;;;;31.60;14.03;;;1.00;99.90;;;;;;5219807;27;20161;-74
2021/01/27 03:51:12;;;;;;;30.37;13.00;;;1.00;99.90;;;;;;5221492;27;20115;-75
2021/01/27 03:53:40;;;;;;;30.37;13.47;;;0.90;99.90;;;;;;5219971;27;20145;-74
2021/01/27 03:56:28;;;;;;;29.30;13.63;;;1.00;99.90;;;;;;5219959;27;20138;-74
2021/01/27 03:58:54;;;;;;;27.73;12.67;;;1.00;99.90;;;;;;5221264;27;20338;-72
2021/01/27 04:01:23;;;;;;;28.37;12.37;;;1.00;99.90;;;;;;5220037;27;20199;-74
2021/01/27 04:03:53;;;;;;;24.77;12.40;;;0.90;99.90;;;;;;5218790;27;20111;-74
2021/01/27 04:06:20;;;;;;;25.10;12.23;;;1.00;99.90;;;;;;5220252;27;20137;-75
2021/01/27 04:08:47;;;;;;;22.60;11.53;;;1.10;99.90;;;;;;5221162;27;20210;-75
2021/01/27 04:11:13;;;;;;;25.50;11.73;;;1.10;99.90;;;;;;5234622;27;20343;-74
2021/01/27 04:13:40;;;;;;;23.03;10.83;;;1.00;99.90;;;;;;5310170;27;20114;-74
2021/01/27 04:16:06;;;;;;;24.33;11.13;;;1.10;99.90;;;;;;5310551;27;20117;-75
2021/01/27 04:18:33;;;;;;;24.70;10.67;;;1.00;99.90;;;;;;5310096;27;20452;-74
2021/01/27 04:21:00;;;;;;;21.80;10.80;;;0.90;99.90;;;;;;5310144;27;20113;-74
2021/01/27 04:23:26;;;;;;;22.77;10.63;;;0.90;99.90;;;;;;5310034;27;20150;-72
2021/01/27 04:25:53;;;;;;;24.60;10.93;;;1.00;99.90;;;;;;5310063;27;20122;-74
2021/01/27 04:28:19;;;;;;;22.13;9.73;;;1.00;99.90;;;;;;5310058;27;20129;-73
2021/01/27 04:30:46;;;;;;;23.07;10.50;;;1.00;99.90;;;;;;5310606;27;20131;-74
2021/01/27 04:33:13;;;;;;;22.83;10.53;;;1.00;99.90;;;;;;5310009;27;20173;-74
2021/01/27 04:35:40;;;;;;;20.67;10.67;;;1.10;99.90;;;;;;5309846;27;20133;-73
2021/01/27 04:38:07;;;;;;;23.33;10.07;;;1.00;99.90;;;;;;5309702;27;20131;-74
2021/01/27 04:40:44;;;;;;;22.53;11.07;;;1.00;99.90;;;;;;5309944;27;20113;-74
2021/01/27 04:43:25;;;;;;;22.23;9.93;;;1.00;99.90;;;;;;5311505;27;20114;-74
2021/01/27 04:46:02;;;;;;;22.03;10.77;;;1.10;99.90;;;;;;5312000;27;20121;-73
2021/01/27 04:48:50;;;;;;;24.33;10.60;;;1.00;99.90;;;;;;5311781;27;20113;-73
2021/01/27 04:51:40;;;;;;;23.13;10.57;;;1.00;99.90;;;;;;5312044;27;20127;-73
2021/01/27 04:54:24;;;;;;;22.47;9.97;;;1.00;99.90;;;;;;5295061;27;20397;-73
2021/01/27 04:57:09;;;;;;;20.23;9.70;;;1.00;99.90;;;;;;5309914;27;20133;-73
2021/01/27 05:00:05;;;;;;;18.97;9.57;;;1.00;99.90;;;;;;5309796;27;20379;-73
2021/01/27 05:02:49;;;;;;;20.53;9.57;;;1.00;99.90;;;;;;5310774;27;20117;-73
2021/01/27 05:05:27;;;;;;;19.80;9.50;;;1.00;99.90;;;;;;5309689;27;20113;-73
2021/01/27 05:08:17;;;;;;;20.17;9.90;;;1.00;99.90;;;;;;5310607;27;20137;-73
2021/01/27 05:10:51;;;;;;;19.57;9.27;;;1.00;99.90;;;;;;5312039;27;20463;-74
2021/01/27 05:13:32;;;;;;;20.60;9.87;;;0.90;99.90;;;;;;5311810;27;20125;-73
2021/01/27 05:16:01;;;;;;;18.60;8.87;;;0.90;99.90;;;;;;5311478;27;20172;-73
2021/01/27 05:18:28;;;;;;;17.00;9.10;;;0.90;99.90;;;;;;5311141;27;20118;-73
2021/01/27 05:20:55;;;;;;;20.37;9.13;;;0.90;99.90;;;;;;5309910;27;20149;-75
2021/01/27 05:23:21;;;;;;;19.87;8.77;;;0.80;99.90;;;;;;5309572;27;20125;-73
2021/01/27 05:26:13;;;;;;;18.50;8.60;;;0.80;99.90;;;;;;5310297;27;20198;-73
2021/01/27 05:28:47;;;;;;;15.77;8.00;;;0.70;99.90;;;;;;5309698;27;20121;-74
2021/01/27 05:31:14;;;;;;;16.27;8.30;;;0.70;99.90;;;;;;5309738;27;20165;-74
2021/01/27 05:33:49;;;;;;;17.83;7.47;;;0.60;99.90;;;;;;5309569;27;20118;-74
2021/01/27 05:36:25;;;;;;;16.47;7.63;;;0.70;99.90;;;;;;5311558;27;20128;-74
2021/01/27 05:39:10;;;;;;;16.20;7.43;;;0.70;99.90;;;;;;5309432;27;20386;-72
2021/01/27 05:41:37;;;;;;;14.60;7.03;;;0.70;99.90;;;;;;5310417;27;20114;-73
2021/01/27 05:44:09;;;;;;;12.80;6.43;;;0.70;99.90;;;;;;5309745;27;20140;-73
2021/01/27 05:46:37;;;;;;;13.07;6.73;;;0.80;99.90;;;;;;5310755;27;20147;-72
2021/01/27 05:49:25;;;;;;;14.70;6.80;;;0.80;99.90;;;;;;5309434;27;20153;-72
2021/01/27 05:51:51;;;;;;;12.97;6.63;;;0.70;99.90;;;;;;5310951;27;20492;-73
2021/01/27 05:54:25;;;;;;;13.63;6.57;;;0.70;99.90;;;;;;5309743;27;20133;-74
2021/01/27 05:56:53;;;;;;;12.37;6.33;;;0.80;99.90;;;;;;5310578;27;20112;-76
2021/01/27 05:59:28;;;;;;;12.50;6.70;;;0.80;99.90;;;;;;5310492;27;20166;-76
2021/01/27 06:02:03;;;;;;;12.03;6.27;;;0.80;99.90;;;;;;5309452;27;20113;-74
2021/01/27 06:04:32;;;;;;;12.23;6.10;;;0.70;99.90;;;;;;5289369;27;20141;-74
2021/01/27 06:07:06;;;;;;;12.87;5.97;;;0.70;99.90;;;;;;5311220;27;20114;-74
2021/01/27 06:09:42;;;;;;;12.00;6.50;;;0.60;99.90;;;;;;5309416;27;20129;-73
2021/01/27 06:12:13;;;;;;;11.33;6.17;;;0.60;99.90;;;;;;5311822;27;20143;-72
2021/01/27 06:14:40;;;;;;;10.33;5.83;;;0.70;99.90;;;;;;5311311;27;20478;-74
2021/01/27 06:17:27;;;;;;;11.80;5.80;;;0.60;99.90;;;;;;5309205;27;20163;-73
2021/01/27 06:19:58;;;;;;;11.27;5.50;;;0.70;99.90;;;;;;5309987;27;20136;-73
2021/01/27 06:22:50;;;;;;;11.43;5.20;;;0.80;99.90;;;;;;5309099;27;20114;-74
2021/01/27 06:25:44;;;;;;;9.63;4.87;;;0.80;99.90;;;;;;5309136;27;20117;-73
2021/01/27 06:28:32;;;;;;;10.77;4.77;;;0.80;99.90;;;;;;5311279;27;20428;-73
2021/01/27 06:31:32;;;;;;;9.23;4.57;;;0.70;99.90;;;;;;5309003;27;20115;-73
2021/01/27 06:34:28;;;;;;;8.17;4.27;;;0.70;99.90;;;;;;5309450;27;20113;-73
2021/01/27 06:37:02;;;;;;;9.10;3.93;;;0.70;99.90;;;;;;5309643;27;20113;-74
2021/01/27 06:39:57;;;;;;;9.80;4.00;;;0.70;99.90;;;;;;5309615;27;20113;-72
2021/01/27 06:42:50;;;;;;;9.63;4.33;;;0.80;99.90;;;;;;5291323;27;20340;-73
2021/01/27 06:45:34;;;;;;;6.80;3.53;;;0.80;99.90;;;;;;5308607;27;20113;-71
2021/01/27 06:48:24;;;;;;;8.00;3.90;;;0.90;99.90;;;;;;5308922;27;20157;-73
2021/01/27 06:51:09;;;;;;;6.23;3.70;;;0.80;99.90;;;;;;5311877;27;20466;-73
2021/01/27 06:53:56;;;;;;;10.00;3.17;;;0.80;99.90;;;;;;5308884;27;20114;-73
2021/01/27 06:57:00;;;;;;;5.43;3.20;;;0.80;99.90;;;;;;5309265;27;20121;-73
2021/01/27 06:59:29;;;;;;;6.77;3.50;;;0.80;99.90;;;;;;5242135;27;20154;-75
2021/01/27 07:02:14;;;;;;;7.90;3.10;;;0.80;99.90;;;;;;5240921;27;20122;-75
2021/01/27 07:04:59;;;;;;;5.40;2.90;;;0.90;99.90;;;;;;5240909;27;20148;-74
2021/01/27 07:07:57;;;;;;;6.20;3.00;;;0.90;99.90;;;;;;5240665;27;20146;-75
2021/01/27 07:10:24;;;;;;;7.33;3.07;;;1.00;99.90;;;;;;5177921;27;20501;-75
2021/01/27 07:13:13;;;;;;;5.23;2.90;;;1.00;99.90;;;;;;5177609;27;20191;-76
2021/01/27 07:16:00;;;;;;;4.57;2.57;;;1.00;99.90;;;;;;5178076;27;20146;-76
2021/01/27 07:18:46;;;;;;;6.37;3.00;;;1.00;99.90;;;;;;5180075;27;20159;-73
2021/01/27 07:21:43;;;;;;;7.03;3.07;;;1.10;99.90;;;;;;5177526;27;20145;-73
2021/01/27 07:24:29;;;;;;;7.90;3.20;;;1.10;99.90;;;;;;5177147;27;20158;-73
2021/01/27 07:27:12;;;;;;;6.20;3.17;;;1.10;99.90;;;;;;5177147;27;20128;-74
2021/01/27 07:29:59;;;;;;;6.40;3.80;;;1.10;99.90;;;;;;5179236;27;20300;-74
2021/01/27 07:32:34;;;;;;;6.80;3.50;;;1.10;99.90;;;;;;5178016;27;20112;-74
2021/01/27 07:35:11;;;;;;;5.87;3.67;;;1.10;99.90;;;;;;5212118;27;20186;-74
2021/01/27 07:37:40;;;;;;;7.47;3.87;;;1.10;99.90;;;;;;5240628;27;20171;-74
2021/01/27 07:40:06;;;;;;;8.43;4.20;;;1.20;99.90;;;;;;5240718;27;20156;-73
2021/01/27 07:42:57;;;;;;;6.33;3.50;;;1.20;99.90;;;;;;5242225;27;20119;-74
2021/01/27 07:45:31;;;;;;;6.70;3.73;;;1.10;99.90;;;;;;5242458;27;20142;-76
2021/01/27 07:48:32;;;;;;;9.73;3.80;;;1.00;99.90;;;;;;5276127;27;20166;-75
2021/01/27 07:51:08;;;;;;;6.53;3.70;;;1.00;99.90;;;;;;5290248;27;20163;-74
2021/01/27 07:53:41;;;;;;;6.27;3.70;;;1.10;99.90;;;;;;5288872;27;20128;-75
2021/01/27 07:56:24;;;;;;;6.77;4.07;;;1.00;99.90;;;;;;5288109;27;20150;-75
2021/01/27 07:58:58;;;;;;;9.83;3.97;;;1.00;99.90;;;;;;5290011;27;20149;-75
2021/01/27 08:01:37;;;;;;;7.83;3.60;;;1.00;99.90;;;;;;5287511;27;20128;-74
2021/01/27 08:04:04;;;;;;;8.33;3.80;;;1.00;99.90;;;;;;5289882;27;20110;-75
2021/01/27 08:06:42;;;;;;;6.07;3.77;;;1.10;99.90;;;;;;5288061;27;20144;-72
2021/01/27 08:09:11;;;;;;;7.83;3.50;;;0.90;99.90;;;;;;5310865;27;20393;-72
2021/01/27 08:11:42;;;;;;;8.23;4.10;;;0.90;99.90;;;;;;5312166;27;20167;-71
2021/01/27 08:14:13;;;;;;;8.10;3.90;;;0.90;99.90;;;;;;5310376;27;20148;-71
2021/01/27 08:16:47;;;;;;;5.47;4.00;;;0.90;99.90;;;;;;5309512;27;20118;-72
2021/01/27 08:19:13;;;;;;;7.37;4.43;;;1.00;99.90;;;;;;5310869;27;20118;-72
2021/01/27 08:21:55;;;;;;;9.53;4.50;;;0.90;99.90;;;;;;5312072;27;20329;-70
2021/01/27 08:24:37;;;;;;;8.60;4.77;;;0.90;99.90;;;;;;5312026;27;20145;-71
2021/01/27 08:27:09;;;;;;;11.97;4.70;;;0.90;99.90;;;;;;5309849;27;20145;-68
2021/01/27 08:30:02;;;;;;;9.40;5.27;;;1.00;99.90;;;;;;5309561;27;20329;-68
2021/01/27 08:32:30;;;;;;;10.27;5.53;;;0.90;99.90;;;;;;5308794;27;20165;-69
2021/01/27 08:35:10;;;;;;;13.27;5.90;;;0.80;99.90;;;;;;5311770;27;20187;-69
2021/01/27 08:37:39;;;;;;;12.53;6.20;;;0.90;99.90;;;;;;5309560;27;20146;-69
2021/01/27 08:40:20;;;;;;;15.60;6.33;;;0.90;99.90;;;;;;5310677;27;20455;-69
2021/01/27 08:42:56;;;;;;;13.93;6.70;;;0.80;99.90;;;;;;5309920;27;20480;-70
2021/01/27 08:45:22;;;;;;;14.37;7.03;;;0.60;99.90;;;;;;5309831;27;20154;-70
2021/01/27 08:47:55;;;;;;;11.90;6.73;;;0.70;99.90;;;;;;5310932;27;20136;-70
2021/01/27 08:50:43;;;;;;;12.03;6.50;;;0.70;99.90;;;;;;5311900;27;20114;-69
2021/01/27 08:53:19;;;;;;;15.90;7.50;;;0.70;99.90;;;;;;5311614;27;20150;-68
2021/01/27 08:55:45;;;;;;;14.13;7.03;;;0.70;99.90;;;;;;5311837;27;20483;-68
2021/01/27 08:58:33;;;;;;;13.13;6.70;;;0.60;99.90;;;;;;5312041;27;20155;-68
2021/01/27 09:01:31;;;;;;;14.47;7.20;;;0.70;99.90;;;;;;5309973;27;20121;-71
2021/01/27 09:04:00;;;;;;;15.97;7.00;;;0.70;99.90;;;;;;5311717;27;20152;-69
2021/01/27 09:06:43;;;;;;;16.20;6.33;;;0.70;99.90;;;;;;5311758;27;20113;-67
2021/01/27 09:09:14;;;;;;;12.57;6.00;;;0.80;99.90;;;;;;5309229;27;20181;-71
2021/01/27 09:11:41;;;;;;;13.23;6.17;;;0.70;99.90;;;;;;5290230;27;20337;-70
2021/01/27 09:14:10;;;;;;;13.30;6.73;;;0.70;99.90;;;;;;5309863;27;20141;-70
2021/01/27 09:16:38;;;;;;;12.03;6.47;;;0.80;99.90;;;;;;5309379;27;20428;-69
2021/01/27 09:19:16;;;;;;;11.97;6.63;;;0.80;99.90;;;;;;5310282;27;20110;-69
2021/01/27 09:22:05;;;;;;;13.57;6.60;;;0.80;99.90;;;;;;5309518;27;20114;-69
2021/01/27 09:24:46;;;;;;;11.83;6.10;;;0.70;99.90;;;;;;5299618;27;20416;-69
2021/01/27 09:27:17;;;;;;;13.57;6.40;;;0.80;99.90;;;;;;5309043;27;20170;-69
2021/01/27 09:29:44;;;;;;;11.00;6.13;;;0.80;99.90;;;;;;5310520;27;20184;-69
2021/01/27 09:32:17;;;;;;;14.17;6.00;;;0.90;99.90;;;;;;5310478;27;20384;-69
2021/01/27 09:34:49;;;;;;;12.40;6.33;;;0.90;99.90;;;;;;5311698;27;20129;-69
2021/01/27 09:37:25;;;;;;;11.07;5.77;;;0.90;99.90;;;;;;5309691;27;20117;-69
2021/01/27 09:40:13;;;;;;;10.53;5.63;;;0.90;99.90;;;;;;5309001;27;20115;-69
2021/01/27 09:42:40;;;;;;;12.23;5.33;;;0.90;99.90;;;;;;5308893;27;20446;-70
2021/01/27 09:45:09;;;;;;;9.23;5.20;;;0.90;99.90;;;;;;5309107;27;20129;-69
2021/01/27 09:47:39;;;;;;;8.83;4.90;;;0.90;99.90;;;;;;5307978;27;20147;-72
2021/01/27 09:50:06;;;;;;;10.43;5.40;;;1.00;99.90;;;;;;5311260;27;20129;-71
2021/01/27 09:52:34;;;;;;;9.13;4.67;;;1.10;99.90;;;;;;5309659;27;20139;-73
2021/01/27 09:55:21;;;;;;;9.30;4.20;;;1.10;99.90;;;;;;5309314;27;20168;-74
2021/01/27 09:57:50;;;;;;;8.57;4.40;;;1.00;99.90;;;;;;5289001;27;20168;-73
2021/01/27 10:00:26;;;;;;;9.30;4.33;;;1.10;99.90;;;;;;5307253;27;20148;-73
2021/01/27 10:02:53;;;;;;;7.53;3.70;;;1.00;99.90;;;;;;5309117;27;20113;-72
2021/01/27 10:05:38;;;;;;;7.57;3.53;;;1.10;99.90;;;;;;5308388;27;20137;-71
2021/01/27 10:08:29;;;;;;;5.37;3.50;;;1.10;99.90;;;;;;5308486;27;20149;-72
2021/01/27 10:11:32;;;;;;;7.63;3.57;;;1.10;99.90;;;;;;5311158;27;20405;-72
2021/01/27 10:14:05;;;;;;;8.77;4.13;;;1.10;99.90;;;;;;5308978;27;20448;-73
2021/01/27 10:16:32;;;;;;;7.47;3.77;;;1.10;99.90;;;;;;5311145;27;20122;-73
2021/01/27 10:19:06;;;;;;;7.20;4.07;;;1.10;99.90;;;;;;5309245;27;20359;-73
2021/01/27 10:21:43;;;;;;;8.87;4.27;;;1.20;99.90;;;;;;5310166;27;20156;-72
2021/01/27 10:24:10;;;;;;;8.17;4.73;;;1.30;99.90;;;;;;5310277;27;20459;-72
2021/01/27 10:26:41;;;;;;;7.77;4.50;;;1.40;99.90;;;;;;5309986;27;20354;-70
2021/01/27 10:29:16;;;;;;;9.80;4.40;;;1.30;99.90;;;;;;5308471;27;20141;-70
2021/01/27 10:31:55;;;;;;;9.97;4.43;;;1.30;99.90;;;;;;5309502;27;20470;-71
2021/01/27 10:34:43;;;;;;;7.23;4.13;;;1.20;99.90;;;;;;5311179;27;20436;-69
2021/01/27 10:37:33;;;;;;;10.73;4.50;;;1.20;99.90;;;;;;5311258;27;20163;-70
2021/01/27 10:40:28;;;;;;;8.00;4.10;;;1.20;99.90;;;;;;5309869;27;20137;-70
2021/01/27 10:42:59;;;;;;;9.17;4.20;;;1.20;99.90;;;;;;5309673;27;20447;-69
2021/01/27 10:45:40;;;;;;;6.23;4.00;;;1.20;99.90;;;;;;5310191;27;20148;-70
2021/01/27 10:48:09;;;;;;;9.13;4.10;;;1.30;99.90;;;;;;5311361;27;20202;-69
2021/01/27 10:50:44;;;;;;;9.77;4.77;;;1.40;99.90;;;;;;5308524;27;20133;-69
2021/01/27 10:53:29;;;;;;;8.07;4.10;;;1.40;99.90;;;;;;5308189;27;20506;-72
2021/01/27 10:55:56;;;;;;;7.90;3.80;;;1.30;99.90;;;;;;5310917;27;20140;-70
2021/01/27 10:58:24;;;;;;;7.60;4.50;;;1.30;99.90;;;;;;5308681;27;20147;-69
2021/01/27 11:00:51;;;;;;;8.70;4.50;;;1.30;99.90;;;;;;5310372;27;20110;-69
2021/01/27 11:03:18;;;;;;;7.33;3.60;;;1.30;99.90;;;;;;5310813;27;20141;-71
2021/01/27 11:05:46;;;;;;;7.10;3.53;;;1.40;99.90;;;;;;5308617;27;20373;-72
2021/01/27 11:08:18;;;;;;;6.87;3.73;;;1.40;99.90;;;;;;5308594;27;20137;-72
2021/01/27 11:10:44;;;;;;;10.10;5.63;;;1.40;99.90;;;;;;5311531;27;20106;-70
2021/01/27 11:13:11;;;;;;;7.03;4.00;;;1.40;99.90;;;;;;5307954;27;20114;-70
2021/01/27 11:15:37;;;;;;;8.50;3.97;;;1.40;99.90;;;;;;5310565;27;20381;-71
2021/01/27 11:18:04;;;;;;;9.87;4.00;;;1.50;99.90;;;;;;5308630;27;20131;-71
2021/01/27 11:20:31;;;;;;;4.70;3.40;;;1.50;99.90;;;;;;5309564;27;20125;-72
2021/01/27 11:22:57;;;;;;;5.50;3.47;;;1.40;99.90;;;;;;5310434;27;20446;-69
2021/01/27 11:25:27;;;;;;;6.87;3.57;;;1.50;99.90;;;;;;5308949;27;20354;-70
2021/01/27 11:27:54;;;;;;;7.57;4.03;;;1.60;99.90;;;;;;5308542;27;20198;-70
2021/01/27 11:30:24;;;;;;;6.73;3.50;;;1.40;99.90;;;;;;5310171;27;20435;-71
2021/01/27 11:32:51;;;;;;;7.80;3.80;;;1.30;99.90;;;;;;5310141;27;20148;-71
2021/01/27 11:35:18;;;;;;;5.97;3.57;;;1.30;99.90;;;;;;5308616;27;20192;-70
2021/01/27 11:37:47;;;;;;;8.93;3.83;;;1.50;99.90;;;;;;5310294;27;20119;-70
2021/01/27 11:40:16;;;;;;;6.67;3.60;;;1.50;99.90;;;;;;5308736;27;20114;-69
2021/01/27 11:42:42;;;;;;;7.13;3.50;;;1.50;99.90;;;;;;5310432;27;20435;-70
2021/01/27 11:45:09;;;;;;;7.20;4.23;;;1.60;99.90;;;;;;5308622;27;20152;-71
2021/01/27 11:47:36;;;;;;;6.83;4.07;;;1.60;99.90;;;;;;5308986;27;20480;-70
2021/01/27 11:50:04;;;;;;;7.63;4.00;;;1.50;99.90;;;;;;5308672;27;20148;-70
2021/01/27 11:52:31;;;;;;;7.33;4.00;;;1.60;99.90;;;;;;5308732;27;20106;-71
2021/01/27 11:54:58;;;;;;;9.33;4.00;;;1.60;99.90;;;;;;5310401;27;20142;-71
2021/01/27 11:57:25;;;;;;;7.07;4.07;;;1.70;99.90;;;;;;5308531;27;20121;-71
2021/01/27 11:59:51;;;;;;;7.73;4.50;;;1.60;99.90;;;;;;5310704;27;20129;-72
2021/01/27 12:02:18;;;;;;;8.13;4.47;;;1.50;99.90;;;;;;5308595;27;20142;-71
2021/01/27 12:04:44;;;;;;;7.37;4.27;;;1.50;99.90;;;;;;5308688;27;20362;-70
2021/01/27 12:07:11;;;;;;;8.87;4.47;;;1.50;99.90;;;;;;5310701;27;20165;-70
2021/01/27 12:09:38;;;;;;;7.67;4.10;;;1.60;99.90;;;;;;5309016;27;20156;-70
2021/01/27 12:12:06;;;;;;;7.63;4.30;;;1.60;99.90;;;;;;5308149;27;20114;-72
2021/01/27 12:14:34;;;;;;;9.40;4.37;;;1.50;99.90;;;;;;5308546;27;20117;-72
2021/01/27 12:17:01;;;;;;;8.57;4.20;;;1.50;99.90;;;;;;5310575;27;20457;-71
2021/01/27 12:19:29;;;;;;;6.50;4.30;;;1.40;99.90;;;;;;5308680;27;20190;-71
2021/01/27 12:21:56;;;;;;;8.03;4.27;;;1.40;99.90;;;;;;5310718;27;20121;-71
2021/01/27 12:24:27;;;;;;;7.73;4.10;;;1.40;99.90;;;;;;5308494;27;20448;-77
2021/01/27 12:26:53;;;;;;;6.57;3.90;;;1.40;99.90;;;;;;5310794;27;20114;-71
2021/01/27 12:29:22;;;;;;;7.23;3.70;;;1.40;99.90;;;;;;5312018;27;20140;-73
2021/01/27 12:31:50;;;;;;;7.63;4.00;;;1.30;99.90;;;;;;5309779;27;20190;-73
2021/01/27 12:34:19;;;;;;;6.60;4.03;;;1.30;99.90;;;;;;5309256;27;20395;-71
2021/01/27 12:36:46;;;;;;;5.97;3.37;;;1.30;99.90;;;;;;5309620;27;20180;-72
2021/01/27 12:39:13;;;;;;;6.47;3.53;;;1.30;99.90;;;;;;5309729;27;20114;-72
2021/01/27 12:41:39;;;;;;;6.33;3.37;;;1.50;99.90;;;;;;5309384;27;20367;-72
2021/01/27 12:44:06;;;;;;;7.47;3.50;;;1.40;99.90;;;;;;5291961;27;20131;-72
2021/01/27 12:46:34;;;;;;;5.57;3.30;;;1.50;99.90;;;;;;5309576;27;20129;-73
2021/01/27 12:49:01;;;;;;;7.47;3.30;;;1.40;99.90;;;;;;5311188;27;20128;-73
2021/01/27 12:51:28;;;;;;;5.37;3.43;;;1.40;99.90;;;;;;5309843;27;20141;-73
2021/01/27 12:53:56;;;;;;;6.27;3.50;;;1.40;99.90;;;;;;5311371;27;20114;-72
2021/01/27 12:56:23;;;;;;;7.30;3.30;;;1.50;99.90;;;;;;5311403;27;20170;-71
2021/01/27 12:58:49;;;;;;;5.13;3.37;;;1.50;99.90;;;;;;5310226;27;20118;-71
2021/01/27 13:01:16;;;;;;;6.60;3.30;;;1.60;99.90;;;;;;5311778;27;20115;-72
2021/01/27 13:03:42;;;;;;;6.47;3.37;;;1.70;99.30;;;;;;5309547;27;20126;-73
2021/01/27 13:06:09;;;;;;;5.77;3.23;;;1.60;98.50;;;;;;5311075;27;20130;-71
2021/01/27 13:08:36;;;;;;;7.23;2.93;;;1.60;98.10;;;;;;5289585;27;20154;-72
2021/01/27 13:11:03;;;;;;;8.40;3.10;;;1.60;98.00;;;;;;5311473;27;20115;-70
2021/01/27 13:13:29;;;;;;;5.83;3.07;;;1.60;97.50;;;;;;5309299;27;20494;-71
2021/01/27 13:15:56;;;;;;;6.10;3.13;;;1.60;98.00;;;;;;5311221;27;20125;-71
2021/01/27 13:18:24;;;;;;;7.37;3.30;;;1.60;98.10;;;;;;5310232;27;20137;-72
2021/01/27 13:20:51;;;;;;;6.40;3.40;;;1.60;98.50;;;;;;5308599;27;20128;-71
2021/01/27 13:23:17;;;;;;;8.90;3.50;;;1.70;98.70;;;;;;5310066;27;20158;-72
2021/01/27 13:25:43;;;;;;;9.37;4.20;;;1.60;98.90;;;;;;5309365;27;20165;-72